createdAt,value
2018-06-29T04:35:42.292Z,19.60
2018-06-29T04:38:13.516Z,19.50
2018-06-29T04:40:44.731Z,19.50
2018-06-29T04:43:16.585Z,19.50
2018-06-29T04:45:47.520Z,19.50
2018-06-29T04:48:18.683Z,19.50
2018-06-29T04:50:49.876Z,19.50
2018-06-29T04:53:21.394Z,19.50
2018-06-29T04:55:52.447Z,19.60
2018-06-29T04:58:23.695Z,19.50
2018-06-29T05:00:54.720Z,19.50
2018-06-29T05:03:25.885Z,19.60
2018-06-29T05:05:57.560Z,19.60
2018-06-29T05:08:28.850Z,19.70
2018-06-29T05:10:59.592Z,19.60
2018-06-29T05:13:30.806Z,19.60
2018-06-29T05:16:02.034Z,19.50
2018-06-29T05:18:33.522Z,19.50
2018-06-29T05:21:04.580Z,19.50
2018-06-29T05:23:35.776Z,19.60
2018-06-29T05:26:06.770Z,19.50
2018-06-29T05:28:37.794Z,19.50
2018-06-29T05:33:40.100Z,19.60
2018-06-29T05:36:11.343Z,19.60
2018-06-29T05:38:42.516Z,19.50
2018-06-29T05:41:15.888Z,19.60
2018-06-29T05:43:47.080Z,19.60
2018-06-29T05:46:18.290Z,19.60
2018-06-29T05:48:49.292Z,19.60
2018-06-29T05:51:20.472Z,19.70
2018-06-29T05:53:51.632Z,19.70
2018-06-29T05:56:22.861Z,19.80
2018-06-29T05:58:54.737Z,19.80
2018-06-29T06:01:26.120Z,19.80
2018-06-29T06:03:57.816Z,19.70
2018-06-29T06:06:29.282Z,19.80
2018-06-29T06:09:01.271Z,19.80
2018-06-29T06:11:32.843Z,19.80
2018-06-29T06:14:04.450Z,19.90
2018-06-29T06:16:35.492Z,20.00
2018-06-29T06:19:23.126Z,19.90
2018-06-29T06:21:55.124Z,20.00
2018-06-29T06:24:26.344Z,20.00
2018-06-29T06:26:57.608Z,19.90
2018-06-29T06:29:28.528Z,19.90
2018-06-29T06:31:59.511Z,20.00
2018-06-29T06:34:30.553Z,20.00
2018-06-29T06:37:01.749Z,20.00
2018-06-29T06:42:03.436Z,20.00
2018-06-29T06:44:34.572Z,20.10
2018-06-29T06:47:05.845Z,20.20
2018-06-29T06:49:36.780Z,20.20
2018-06-29T06:52:07.924Z,20.10
2018-06-29T06:54:39.157Z,20.10
2018-06-29T06:57:10.598Z,20.10
2018-06-29T06:59:42.121Z,20.20
2018-06-29T07:02:13.091Z,20.20
2018-06-29T07:04:44.080Z,20.10
2018-06-29T07:07:15.074Z,20.20
2018-06-29T07:09:46.574Z,20.20
2018-06-29T07:12:18.173Z,20.20
2018-06-29T07:14:49.667Z,20.30
2018-06-29T07:17:21.132Z,20.30
2018-06-29T07:19:52.702Z,20.30
2018-06-29T07:22:24.051Z,20.30
2018-06-29T07:24:55.197Z,20.30
2018-06-29T07:27:26.431Z,20.30
2018-06-29T07:29:57.878Z,20.30
2018-06-29T07:32:29.129Z,20.40
2018-06-29T07:35:00.337Z,20.40
2018-06-29T07:40:01.891Z,20.40
2018-06-29T07:42:32.935Z,20.50
2018-06-29T07:45:04.488Z,20.50
2018-06-29T07:47:35.736Z,20.60
2018-06-29T07:50:07.215Z,20.70
2018-06-29T07:52:38.230Z,20.70
2018-06-29T07:55:09.543Z,20.80
2018-06-29T07:57:40.632Z,20.90
2018-06-29T08:00:11.859Z,21.10
2018-06-29T08:02:43.125Z,21.20
2018-06-29T08:05:14.034Z,21.30
2018-06-29T08:07:45.200Z,21.10
2018-06-29T08:10:16.188Z,21.10
2018-06-29T08:12:47.398Z,21.00
2018-06-29T08:15:18.559Z,21.30
2018-06-29T08:17:50.103Z,21.30
2018-06-29T08:20:21.329Z,21.20
2018-06-29T08:22:52.551Z,21.20
2018-06-29T08:25:23.563Z,21.30
2018-06-29T08:27:55.706Z,21.40
2018-06-29T08:30:26.907Z,21.50
2018-06-29T08:32:57.902Z,21.40
2018-06-29T08:35:29.450Z,21.50
2018-06-29T08:38:00.776Z,21.60
2018-06-29T08:40:31.872Z,21.50
2018-06-29T08:43:03.219Z,21.60
2018-06-29T08:45:34.483Z,21.90
2018-06-29T08:48:05.528Z,22.00
2018-06-29T08:50:36.691Z,22.40
2018-06-29T08:53:08.074Z,22.60
2018-06-29T08:55:39.199Z,22.40
2018-06-29T08:58:10.492Z,22.00
2018-06-29T09:00:41.412Z,22.00
2018-06-29T09:03:19.472Z,21.80
2018-06-29T09:05:50.663Z,21.80
2018-06-29T09:08:21.860Z,21.80
2018-06-29T09:10:52.865Z,21.70
2018-06-29T09:15:54.254Z,22.30
2018-06-29T09:18:25.259Z,22.20
2018-06-29T09:20:56.423Z,22.50
2018-06-29T09:23:27.627Z,22.80
2018-06-29T09:25:58.819Z,23.00
2018-06-29T09:28:30.366Z,23.30
2018-06-29T09:31:01.924Z,23.30
2018-06-29T09:33:33.496Z,23.60
2018-06-29T09:36:04.775Z,23.60
2018-06-29T09:38:36.074Z,23.70
2018-06-29T09:41:07.135Z,23.50
2018-06-29T09:43:38.207Z,23.60
2018-06-29T09:46:09.356Z,23.80
2018-06-29T09:48:41.066Z,23.70
2018-06-29T09:51:12.324Z,23.60
2018-06-29T09:53:43.531Z,23.90
2018-06-29T09:56:14.671Z,24.50
2018-06-29T09:58:45.667Z,24.30
2018-06-29T10:01:17.024Z,24.00
2018-06-29T10:03:47.879Z,23.80
2018-06-29T10:06:20.152Z,24.40
2018-06-29T10:08:52.417Z,24.60
2018-06-29T10:11:23.459Z,24.90
2018-06-29T10:13:55.119Z,25.80
2018-06-29T10:16:26.173Z,26.30
2018-06-29T10:18:57.407Z,26.10
2018-06-29T10:21:28.783Z,25.80
2018-06-29T10:26:30.918Z,27.20
2018-06-29T10:29:02.426Z,27.40
2018-06-29T10:31:33.519Z,28.10
2018-06-29T10:34:04.759Z,27.80
2018-06-29T10:36:35.876Z,28.30
2018-06-29T10:39:13.097Z,27.90
2018-06-29T10:41:45.515Z,28.30
2018-06-29T10:44:16.578Z,28.40
2018-06-29T10:46:47.788Z,27.70
2018-06-29T10:51:49.567Z,27.40
2018-06-29T10:54:20.543Z,27.80
2018-06-29T10:56:51.715Z,28.40
2018-06-29T10:59:22.987Z,28.10
2018-06-29T11:01:54.109Z,28.00
2018-06-29T11:04:25.282Z,28.20
2018-06-29T11:06:57.430Z,29.10
2018-06-29T11:09:28.463Z,29.60
2018-06-29T11:11:59.935Z,29.70
2018-06-29T11:14:31.088Z,28.60
2018-06-29T11:17:02.330Z,28.80
2018-06-29T11:19:33.218Z,28.10
2018-06-29T11:22:04.219Z,28.20
2018-06-29T11:24:35.231Z,28.20
2018-06-29T11:27:06.396Z,28.20
2018-06-29T11:29:37.946Z,28.30
2018-06-29T11:32:10.202Z,29.40
2018-06-29T11:34:41.988Z,29.90
2018-06-29T11:37:13.223Z,29.80
2018-06-29T11:39:44.133Z,29.50
2018-06-29T11:42:15.323Z,29.20
2018-06-29T11:44:46.318Z,29.00
2018-06-29T11:47:17.543Z,29.50
2018-06-29T11:49:48.561Z,29.30
2018-06-29T11:52:19.695Z,29.40
2018-06-29T11:54:50.935Z,29.80
2018-06-29T11:57:22.209Z,29.90
2018-06-29T11:59:53.319Z,29.80
2018-06-29T12:02:24.463Z,29.90
2018-06-29T12:04:55.987Z,30.30
2018-06-29T12:07:27.602Z,30.20
2018-06-29T12:09:58.818Z,30.20
2018-06-29T12:12:30.015Z,30.60
2018-06-29T12:15:01.110Z,30.90
2018-06-29T12:20:03.019Z,31.30
2018-06-29T12:22:34.951Z,31.90
2018-06-29T12:25:06.019Z,32.20
2018-06-29T12:27:37.191Z,31.90
2018-06-29T12:30:08.392Z,31.70
2018-06-29T12:32:39.562Z,31.60
2018-06-29T12:39:59.160Z,31.90
2018-06-29T12:42:30.540Z,32.40
2018-06-29T12:45:01.583Z,32.10
2018-06-29T12:50:02.767Z,32.90
2018-06-29T12:52:33.982Z,33.60
2018-06-29T12:55:05.306Z,33.90
2018-06-29T12:57:36.548Z,33.60
2018-06-29T13:00:08.191Z,33.60
2018-06-29T13:02:39.240Z,32.90
2018-06-29T13:05:10.295Z,32.50
2018-06-29T13:07:41.523Z,32.40
2018-06-29T13:10:12.743Z,32.50
2018-06-29T13:12:43.860Z,32.70
2018-06-29T13:15:14.972Z,32.70
2018-06-29T13:17:46.041Z,33.40
2018-06-29T13:20:17.117Z,33.30
2018-06-29T13:22:48.231Z,33.10
2018-06-29T13:25:19.501Z,34.10
2018-06-29T13:30:20.896Z,33.30
2018-06-29T13:32:51.843Z,32.80
2018-06-29T13:35:23.033Z,32.80
2018-06-29T13:37:54.048Z,32.60
2018-06-29T13:42:56.004Z,32.70
2018-06-29T13:45:28.022Z,32.60
2018-06-29T13:47:59.164Z,32.70
2018-06-29T13:50:30.696Z,33.10
2018-06-29T13:53:02.743Z,33.00
2018-06-29T13:55:34.296Z,32.80
2018-06-29T13:58:05.359Z,32.50
2018-06-29T14:00:36.509Z,32.30
2018-06-29T14:03:07.774Z,32.50
2018-06-29T14:05:38.894Z,32.50
2018-06-29T14:08:10.421Z,32.50
2018-06-29T14:10:41.669Z,32.50
2018-06-29T14:13:12.891Z,32.40
2018-06-29T14:18:14.643Z,32.20
2018-06-29T14:20:45.887Z,32.50
2018-06-29T14:23:17.036Z,32.30
2018-06-29T14:25:48.228Z,32.40
2018-06-29T14:28:19.242Z,32.30
2018-06-29T14:30:50.441Z,31.80
2018-06-29T14:33:22.213Z,31.60
2018-06-29T14:35:54.132Z,31.90
2018-06-29T14:38:25.470Z,31.90
2018-06-29T14:41:59.171Z,31.70
2018-06-29T14:44:30.077Z,32.00
2018-06-29T14:47:01.102Z,32.00
2018-06-29T14:49:32.259Z,31.80
2018-06-29T14:52:03.518Z,31.60
2018-06-29T14:54:37.631Z,31.70
2018-06-29T14:57:09.441Z,31.80
2018-06-29T14:59:40.537Z,31.50
2018-06-29T15:02:12.061Z,31.50
2018-06-29T15:04:42.926Z,31.60
2018-06-29T15:07:14.127Z,31.70
2018-06-29T15:09:45.320Z,31.80
2018-06-29T15:12:16.511Z,31.70
2018-06-29T15:14:47.604Z,31.70
2018-06-29T15:17:19.312Z,31.40
2018-06-29T15:22:21.619Z,31.50
2018-06-29T15:24:53.180Z,31.60
2018-06-29T15:27:24.299Z,31.70
2018-06-29T15:29:55.475Z,31.60
2018-06-29T15:32:26.491Z,31.60
2018-06-29T15:34:57.643Z,31.50
2018-06-29T15:37:28.850Z,31.50
2018-06-29T15:40:00.064Z,31.30
2018-06-29T15:42:31.222Z,31.20
2018-06-29T15:45:02.411Z,31.20
2018-06-29T15:47:33.567Z,31.00
2018-06-29T15:50:05.236Z,31.10
2018-06-29T15:52:36.439Z,30.90
2018-06-29T15:55:07.425Z,31.10
2018-06-29T15:57:39.010Z,31.00
2018-06-29T16:00:11.962Z,31.00
2018-06-29T16:02:43.424Z,31.10
2018-06-29T16:05:15.206Z,31.00
2018-06-29T16:07:47.511Z,31.00
2018-06-29T16:10:18.926Z,31.10
2018-06-29T16:12:50.561Z,31.00
2018-06-29T16:15:22.015Z,30.60
2018-06-29T16:17:53.926Z,30.80
2018-06-29T16:20:25.023Z,30.90
2018-06-29T16:22:56.367Z,31.00
2018-06-29T16:25:27.318Z,31.10
2018-06-29T16:27:58.772Z,31.00
2018-06-29T16:30:30.572Z,31.00
2018-06-29T16:33:01.748Z,31.00
2018-06-29T16:35:32.853Z,31.00
2018-06-29T16:38:03.970Z,31.00
2018-06-29T16:40:35.088Z,30.90
2018-06-29T16:43:06.324Z,30.80
2018-06-29T16:45:37.359Z,30.60
2018-06-29T16:48:12.000Z,30.60
2018-06-29T16:50:46.128Z,30.70
2018-06-29T16:53:20.495Z,30.80
2018-06-29T16:55:54.250Z,30.80
2018-06-29T16:58:29.101Z,30.70
2018-06-29T17:01:02.374Z,30.40
2018-06-29T17:03:36.204Z,30.40
2018-06-29T17:06:10.095Z,30.50
2018-06-29T17:08:43.835Z,30.50
2018-06-29T17:11:20.509Z,30.50
2018-06-29T17:13:54.501Z,30.40
2018-06-29T17:16:28.472Z,30.50
2018-06-29T17:19:04.215Z,30.50
2018-06-29T17:24:11.319Z,30.60
2018-06-29T17:29:23.276Z,30.60
2018-06-29T17:31:59.162Z,30.50
2018-06-29T17:34:33.173Z,30.70
2018-06-29T17:37:08.821Z,30.90
2018-06-29T17:39:42.436Z,30.70
2018-06-29T17:42:17.173Z,30.70
2018-06-29T17:44:52.545Z,30.60
2018-06-29T17:47:26.660Z,30.50
2018-06-29T17:50:01.732Z,30.50
2018-06-29T17:52:35.388Z,30.50
2018-06-29T17:55:09.981Z,30.50
2018-06-29T17:57:44.267Z,30.50
2018-06-29T18:00:18.717Z,30.50
2018-06-29T18:02:52.517Z,30.60
2018-06-29T18:05:26.357Z,30.50
2018-06-29T18:07:59.965Z,30.40
2018-06-29T18:10:33.531Z,30.30
2018-06-29T18:13:07.068Z,30.30
2018-06-29T18:15:40.407Z,30.30
2018-06-29T18:18:13.965Z,30.20
2018-06-29T18:20:47.485Z,30.20
2018-06-29T18:23:21.278Z,30.10
2018-06-29T18:25:54.615Z,30.10
2018-06-29T18:28:26.143Z,30.00
2018-06-29T18:30:57.259Z,29.90
2018-06-29T18:33:28.463Z,29.80
2018-06-29T18:35:59.966Z,29.70
2018-06-29T18:38:31.615Z,29.60
2018-06-29T18:41:02.607Z,29.50
2018-06-29T18:43:33.566Z,29.40
2018-06-29T18:46:04.852Z,29.20
2018-06-29T18:48:35.959Z,29.10
2018-06-29T18:51:07.011Z,29.10
2018-06-29T18:53:38.026Z,29.00
2018-06-29T18:56:08.939Z,28.90
2018-06-29T18:58:40.155Z,28.80
2018-06-29T19:03:42.855Z,28.70
2018-06-29T19:06:13.901Z,28.60
2018-06-29T19:08:45.147Z,28.50
2018-06-29T19:11:16.297Z,28.40
2018-06-29T19:13:47.503Z,28.30
2018-06-29T19:18:49.363Z,28.10
2018-06-29T19:21:20.506Z,27.90
2018-06-29T19:23:51.687Z,27.80
2018-06-29T19:26:23.167Z,27.80
2018-06-29T19:28:54.267Z,27.80
2018-06-29T19:31:25.259Z,27.70
2018-06-29T19:33:56.757Z,27.70
2018-06-29T19:36:28.089Z,27.60
2018-06-29T19:38:59.937Z,27.50
2018-06-29T19:41:31.061Z,27.40
2018-06-29T19:44:02.231Z,27.30
2018-06-29T19:46:33.900Z,27.30
2018-06-29T19:49:05.495Z,27.20
2018-06-29T19:51:36.728Z,27.20
2018-06-29T19:54:08.061Z,27.10
2018-06-29T19:56:39.605Z,27.00
2018-06-29T19:59:10.927Z,27.00
2018-06-29T20:01:41.939Z,26.90
2018-06-29T20:04:13.115Z,26.80
2018-06-29T20:06:44.228Z,26.80
2018-06-29T20:09:15.467Z,26.70
2018-06-29T20:11:46.441Z,26.60
2018-06-29T20:14:17.867Z,26.60
2018-06-29T20:16:48.833Z,26.50
2018-06-29T20:19:20.020Z,26.40
2018-06-29T20:21:51.679Z,26.40
2018-06-29T20:24:23.524Z,26.30
2018-06-29T20:26:54.825Z,26.30
2018-06-29T20:29:25.798Z,26.30
2018-06-29T20:31:56.951Z,26.20
2018-06-29T20:34:28.482Z,26.10
2018-06-29T20:36:59.855Z,26.10
2018-06-29T20:39:30.902Z,26.00
2018-06-29T20:42:02.507Z,26.00
2018-06-29T20:47:04.299Z,25.90
2018-06-29T20:49:35.862Z,25.80
2018-06-29T20:52:07.135Z,25.80
2018-06-29T20:54:38.503Z,25.70
2018-06-29T20:57:09.990Z,25.70
2018-06-29T20:59:41.300Z,25.60
2018-06-29T21:02:12.252Z,25.50
2018-06-29T21:07:14.246Z,25.50
2018-06-29T21:12:16.092Z,25.30
2018-06-29T21:14:47.216Z,25.30
2018-06-29T21:17:18.529Z,25.20
2018-06-29T21:19:49.644Z,25.20
2018-06-29T21:22:20.704Z,25.10
2018-06-29T21:24:52.187Z,25.10
2018-06-29T21:29:53.832Z,25.00
2018-06-29T21:32:24.903Z,24.90
2018-06-29T21:34:56.234Z,24.90
2018-06-29T21:37:27.120Z,24.90
2018-06-29T21:39:58.540Z,24.80
2018-06-29T21:42:29.792Z,24.80
2018-06-29T21:45:00.993Z,24.80
2018-06-29T21:47:32.091Z,24.70
2018-06-29T21:50:03.404Z,24.70
2018-06-29T21:52:35.023Z,24.70
2018-06-29T21:55:06.696Z,24.60
2018-06-29T21:57:37.888Z,24.50
2018-06-29T22:00:12.844Z,24.50
2018-06-29T22:02:43.760Z,24.50
2018-06-29T22:05:15.251Z,24.40
2018-06-29T22:07:46.487Z,24.40
2018-06-29T22:10:17.821Z,24.40
2018-06-29T22:12:48.947Z,24.40
2018-06-29T22:17:54.969Z,24.20
2018-06-29T22:20:26.278Z,24.30
2018-06-29T22:22:57.442Z,24.30
2018-06-29T22:25:28.948Z,24.30
2018-06-29T22:28:00.273Z,24.20
2018-06-29T22:30:31.379Z,24.20
2018-06-29T22:33:03.472Z,24.20
2018-06-29T22:35:34.352Z,24.10
2018-06-29T22:38:05.644Z,24.10
2018-06-29T22:40:36.756Z,24.20
2018-06-29T22:43:08.251Z,24.10
2018-06-29T22:45:40.153Z,24.10
2018-06-29T22:48:11.078Z,24.10
2018-06-29T22:50:42.599Z,24.00
2018-06-29T22:53:13.697Z,24.00
2018-06-29T22:55:44.872Z,24.10
2018-06-29T22:58:16.016Z,24.00
2018-06-29T23:00:47.323Z,24.00
2018-06-29T23:03:18.445Z,24.00
2018-06-29T23:05:49.634Z,23.90
2018-06-29T23:08:20.637Z,23.80
2018-06-29T23:10:51.811Z,23.80
2018-06-29T23:13:22.813Z,23.80
2018-06-29T23:15:53.990Z,23.80
2018-06-29T23:18:25.170Z,23.90
2018-06-29T23:23:27.344Z,23.70
2018-06-29T23:25:58.580Z,23.60
2018-06-29T23:28:29.941Z,23.50
2018-06-29T23:31:01.599Z,23.30
2018-06-29T23:33:32.479Z,23.20
2018-06-29T23:36:03.624Z,23.10
2018-06-29T23:38:34.539Z,23.10
2018-06-29T23:41:05.792Z,23.20
2018-06-29T23:43:36.705Z,23.20
2018-06-29T23:46:07.720Z,23.30
2018-06-29T23:48:38.711Z,23.30
2018-06-29T23:51:10.048Z,23.10
2018-06-29T23:53:41.310Z,23.10
2018-06-29T23:58:44.005Z,23.20
